Time;durP1;ratioP1;P1;durP2;ratioP2;P2;SDS_P1;SDS_P2;PMS_P1;PMS_P2;Temp;Humidity;BMP_temperature;BMP_pressure;BME280_temperature;BME280_humidity;BME280_pressure;Samples;Min_cycle;Max_cycle;Signal;HPM_P1;HPM_P2
2023/05/06 00:01:32;;;;;;;27.60;13.98;;;;;;;9.84;100.00;101315.63;5064311;28;20052;-75
2023/05/06 00:03:59;;;;;;;24.88;11.65;;;;;;;9.80;100.00;101303.72;5058390;28;20506;-75
2023/05/06 00:06:26;;;;;;;22.25;11.13;;;;;;;9.77;100.00;101307.28;5067034;28;20107;-75
2023/05/06 00:08:53;;;;;;;25.83;11.85;;;;;;;9.75;100.00;101299.38;5072249;28;20052;-75
2023/05/06 00:11:19;;;;;;;23.40;11.90;;;;;;;9.72;100.00;101299.34;5074165;28;20059;-74
2023/05/06 00:13:46;;;;;;;23.90;11.63;;;;;;;9.69;100.00;101295.41;5066982;28;20135;-74
2023/05/06 00:16:13;;;;;;;23.17;11.50;;;;;;;9.63;100.00;101287.88;5056998;28;20045;-75
2023/05/06 00:18:40;;;;;;;22.83;11.30;;;;;;;9.61;100.00;101293.03;5065077;28;20052;-74
2023/05/06 00:21:07;;;;;;;22.10;11.05;;;;;;;9.56;100.00;101285.09;5068812;28;20060;-77
2023/05/06 00:23:33;;;;;;;22.48;11.00;;;;;;;9.58;100.00;101283.50;5070277;28;20053;-76
2023/05/06 00:25:59;;;;;;;23.17;11.88;;;;;;;9.58;100.00;101288.25;5068518;28;20128;-76
2023/05/06 00:28:26;;;;;;;22.48;11.50;;;;;;;9.56;100.00;101282.31;5070191;28;20056;-75
2023/05/06 00:30:53;;;;;;;26.67;12.70;;;;;;;9.53;100.00;101283.13;5078111;28;20055;-75
2023/05/06 00:33:19;;;;;;;32.55;13.98;;;;;;;9.51;100.00;101282.72;5067964;28;20048;-74
2023/05/06 00:35:45;;;;;;;33.63;13.65;;;;;;;9.47;100.00;101279.16;5065809;28;20052;-76
2023/05/06 00:38:14;;;;;;;26.98;13.35;;;;;;;9.44;100.00;101275.19;5056693;28;20055;-75
2023/05/06 00:40:40;;;;;;;30.48;14.35;;;;;;;9.44;100.00;101274.38;5070245;28;20051;-75
2023/05/06 00:43:07;;;;;;;28.52;14.32;;;;;;;9.44;100.00;101289.06;5066698;28;20083;-74
2023/05/06 00:45:34;;;;;;;27.40;13.07;;;;;;;9.47;100.00;101279.94;5087152;28;20130;-75
2023/05/06 00:48:03;;;;;;;29.92;14.23;;;;;;;9.43;100.00;101273.56;5067991;28;20425;-75
2023/05/06 00:50:31;;;;;;;30.27;14.40;;;;;;;9.46;100.00;101280.34;5067905;28;20056;-74
2023/05/06 00:52:58;;;;;;;27.48;14.35;;;;;;;9.49;100.00;101285.09;5067731;28;20040;-75
2023/05/06 00:55:25;;;;;;;28.65;14.43;;;;;;;9.46;100.00;101283.13;5075684;28;20047;-73
2023/05/06 00:57:53;;;;;;;29.55;14.75;;;;;;;9.47;100.00;101285.50;5070419;28;20044;-74
2023/05/06 01:00:20;;;;;;;27.25;14.60;;;;;;;9.48;100.00;101286.28;5068641;28;20055;-76
2023/05/06 01:02:47;;;;;;;28.55;13.77;;;;;;;9.47;100.00;101291.06;5065304;28;20052;-76
2023/05/06 01:05:16;;;;;;;25.52;13.93;;;;;;;9.46;100.00;101280.34;5069718;28;20051;-74
2023/05/06 01:07:52;;;;;;;26.27;13.32;;;;;;;9.44;100.00;101277.16;5065560;28;20052;-75
2023/05/06 01:11:03;;;;;;;28.58;13.35;;;;;;;9.43;100.00;101281.91;5068263;28;20059;-74
2023/05/06 01:13:49;;;;;;;27.90;13.50;;;;;;;9.43;100.00;101281.13;5063907;28;20780;-75
2023/05/06 01:16:19;;;;;;;33.53;13.98;;;;;;;9.40;100.00;101282.72;5069630;28;20049;-75
2023/05/06 01:18:48;;;;;;;30.02;14.02;;;;;;;9.36;100.00;101276.34;5080492;28;20048;-74
2023/05/06 01:21:17;;;;;;;30.42;14.45;;;;;;;9.35;100.00;101285.88;5063917;28;20422;-74
2023/05/06 01:23:56;;;;;;;34.55;14.65;;;;;;;9.36;100.00;101287.44;5064508;28;20419;-75
2023/05/06 01:26:24;;;;;;;31.35;14.48;;;;;;;9.41;100.00;101283.50;5065127;28;20052;-75
2023/05/06 01:28:51;;;;;;;27.02;12.77;;;;;;;9.40;100.00;101288.28;5069076;28;20079;-78
2023/05/06 01:31:24;;;;;;;30.30;14.20;;;;;;;9.34;100.00;101286.28;5077871;28;20067;-75
2023/05/06 01:33:57;;;;;;;32.67;14.63;;;;;;;9.31;100.00;101276.75;5066142;28;20059;-75
2023/05/06 01:36:31;;;;;;;34.05;14.15;;;;;;;9.30;100.00;101277.97;5067972;28;20139;-77
2023/05/06 01:39:18;;;;;;;33.37;14.60;;;;;;;9.28;100.00;101273.97;5066452;28;20054;-72
2023/05/06 01:41:48;;;;;;;31.08;14.43;;;;;;;9.26;100.00;101273.59;5068118;28;20052;-74
2023/05/06 01:44:16;;;;;;;33.55;15.93;;;;;;;9.24;100.00;101276.75;5067593;28;20105;-75
2023/05/06 01:46:44;;;;;;;28.58;14.93;;;;;;;9.22;100.00;101270.03;5079798;28;20071;-75
2023/05/06 01:49:13;;;;;;;29.80;14.57;;;;;;;9.22;100.00;101275.56;5074470;28;20473;-73
2023/05/06 01:51:45;;;;;;;31.63;13.98;;;;;;;9.14;100.00;101273.97;5066654;28;20707;-74
2023/05/06 01:54:12;;;;;;;32.95;15.10;;;;;;;9.13;100.00;101264.88;5068055;28;20550;-75
2023/05/06 01:56:39;;;;;;;29.75;15.45;;;;;;;9.10;100.00;101267.63;5072027;28;20056;-74
2023/05/06 01:59:05;;;;;;;52.72;15.30;;;;;;;9.06;100.00;101269.59;5067894;28;20059;-74
2023/05/06 02:01:32;;;;;;;46.42;15.98;;;;;;;9.06;100.00;101266.81;5068713;28;20716;-74
2023/05/06 02:03:58;;;;;;;47.20;17.13;;;;;;;9.07;100.00;101271.97;5068446;28;20040;-74
2023/05/06 02:06:25;;;;;;;72.22;16.48;;;;;;;9.06;100.00;101273.19;5067751;28;20052;-77
2023/05/06 02:08:52;;;;;;;45.80;16.08;;;;;;;9.03;100.00;101268.41;5067366;28;20818;-74
2023/05/06 02:11:18;;;;;;;37.72;13.90;;;;;;;9.04;100.00;101283.06;5065923;28;20059;-75
2023/05/06 02:13:45;;;;;;;46.20;15.25;;;;;;;8.95;100.00;101288.22;5069863;28;20131;-74
2023/05/06 02:16:12;;;;;;;42.63;15.68;;;;;;;8.93;100.00;101279.47;5068126;28;20507;-74
2023/05/06 02:18:38;;;;;;;36.67;16.20;;;;;;;8.92;100.00;101275.91;5068285;28;20424;-74
2023/05/06 02:21:05;;;;;;;35.65;14.32;;;;;;;8.91;100.00;101281.88;5082864;28;20048;-75
2023/05/06 02:23:31;;;;;;;32.70;14.07;;;;;;;8.92;100.00;101275.13;5066935;28;20056;-74
2023/05/06 02:25:58;;;;;;;28.17;13.63;;;;;;;8.94;100.00;101289.38;5068508;28;20044;-74
2023/05/06 02:28:24;;;;;;;36.83;14.60;;;;;;;8.93;100.00;101279.47;5067833;28;20048;-73
2023/05/06 02:30:57;;;;;;;34.50;14.65;;;;;;;8.89;100.00;101273.13;5067420;28;20044;-73
2023/05/06 02:33:23;;;;;;;34.45;13.93;;;;;;;8.84;100.00;101266.00;5067511;28;20501;-75
2023/05/06 02:35:50;;;;;;;41.75;13.75;;;;;;;8.82;100.00;101267.56;5067948;28;20517;-74
2023/05/06 02:38:17;;;;;;;29.38;13.60;;;;;;;8.77;100.00;101265.97;5066499;28;20049;-74
2023/05/06 02:40:44;;;;;;;35.58;14.32;;;;;;;8.74;100.00;101271.53;5066859;28;20049;-75
2023/05/06 02:43:11;;;;;;;29.30;13.45;;;;;;;8.73;100.00;101270.72;5067709;28;20843;-73
2023/05/06 02:45:38;;;;;;;30.38;12.98;;;;;;;8.70;100.00;101273.47;5068471;28;20080;-75
2023/05/06 02:48:05;;;;;;;22.27;11.63;;;;;;;8.66;100.00;101269.91;5073390;28;20075;-74
2023/05/06 02:50:31;;;;;;;23.58;12.48;;;;;;;8.65;100.00;101279.41;5070491;28;20055;-75
2023/05/06 02:52:58;;;;;;;24.50;12.43;;;;;;;8.62;100.00;101274.63;5067474;28;20075;-74
2023/05/06 02:55:24;;;;;;;23.00;11.93;;;;;;;8.60;100.00;101279.72;5067485;28;20532;-73
2023/05/06 02:57:51;;;;;;;23.52;11.88;;;;;;;8.58;100.00;101282.13;5072651;28;20041;-73
2023/05/06 03:00:17;;;;;;;23.17;12.32;;;;;;;8.51;100.00;101277.31;5067960;28;20052;-73
2023/05/06 03:02:44;;;;;;;25.23;12.98;;;;;;;8.49;100.00;101273.38;5075989;28;20059;-74
2023/05/06 03:05:11;;;;;;;25.17;11.95;;;;;;;8.46;100.00;101277.72;5066891;28;20127;-74
2023/05/06 03:07:38;;;;;;;23.77;12.48;;;;;;;8.49;100.00;101281.69;5077538;28;20044;-74
2023/05/06 03:10:05;;;;;;;23.15;11.52;;;;;;;8.48;100.00;101280.88;5073935;28;20131;-75
2023/05/06 03:12:31;;;;;;;24.02;11.02;;;;;;;8.46;100.00;101276.91;5067249;28;20040;-73
2023/05/06 03:14:58;;;;;;;22.85;11.13;;;;;;;8.43;100.00;101274.91;5065828;28;20473;-74
2023/05/06 03:17:24;;;;;;;23.92;11.27;;;;;;;8.36;100.00;101280.44;5067595;28;20523;-73
2023/05/06 03:19:51;;;;;;;23.55;11.85;;;;;;;8.31;100.00;101269.72;5066503;28;20051;-74
2023/05/06 03:22:18;;;;;;;22.25;11.63;;;;;;;8.31;100.00;101276.03;5075312;28;20064;-74
2023/05/06 03:24:44;;;;;;;35.50;13.07;;;;;;;8.25;100.00;101271.28;5059056;28;20048;-72
2023/05/06 03:27:11;;;;;;;27.17;13.90;;;;;;;8.24;100.00;101273.25;5067317;28;20063;-75
2023/05/06 03:29:37;;;;;;;25.88;12.68;;;;;;;8.19;100.00;101272.81;5066580;28;20060;-75
2023/05/06 03:32:04;;;;;;;24.83;11.95;;;;;;;8.10;100.00;101270.41;5065272;28;20049;-73
2023/05/06 03:34:31;;;;;;;22.83;12.38;;;;;;;8.07;100.00;101264.88;5065872;28;20055;-74
2023/05/06 03:36:58;;;;;;;25.25;12.75;;;;;;;8.09;100.00;101270.78;5067379;28;20075;-74
2023/05/06 03:39:24;;;;;;;29.05;13.40;;;;;;;8.07;100.00;101262.88;5067132;28;20060;-73
2023/05/06 03:41:51;;;;;;;26.23;12.82;;;;;;;8.05;100.00;101267.22;5075106;28;20155;-73
2023/05/06 03:44:17;;;;;;;25.92;13.43;;;;;;;8.03;100.00;101269.59;5075132;28;20131;-74
2023/05/06 03:46:44;;;;;;;27.92;12.40;;;;;;;8.01;100.00;101263.63;5069321;28;20143;-74
2023/05/06 03:49:10;;;;;;;25.15;12.65;;;;;;;8.00;100.00;101273.13;5068594;28;20491;-72
2023/05/06 03:51:37;;;;;;;24.92;11.48;;;;;;;8.00;100.00;101268.38;5065639;28;20511;-73
2023/05/06 03:54:03;;;;;;;23.80;12.57;;;;;;;8.02;100.00;101267.97;5065457;28;20131;-73
2023/05/06 03:56:30;;;;;;;23.45;12.18;;;;;;;8.02;100.00;101262.44;5066873;28;20052;-75
2023/05/06 03:58:56;;;;;;;28.95;12.75;;;;;;;7.98;100.00;101256.09;5066233;28;20051;-73
2023/05/06 04:01:23;;;;;;;23.50;11.90;;;;;;;7.91;100.00;101259.63;5065533;28;20045;-73
2023/05/06 04:03:50;;;;;;;24.95;12.32;;;;;;;7.89;100.00;101263.94;5055827;28;20050;-72
2023/05/06 04:06:17;;;;;;;24.55;11.63;;;;;;;7.84;100.00;101267.91;5065946;28;20052;-73
2023/05/06 04:08:43;;;;;;;23.35;12.02;;;;;;;7.81;100.00;101274.19;5065481;28;20056;-72
2023/05/06 04:11:10;;;;;;;26.02;12.68;;;;;;;7.80;100.00;101282.88;5067284;28;20059;-73
2023/05/06 04:13:37;;;;;;;23.67;11.88;;;;;;;7.76;100.00;101282.06;5066508;28;20052;-74
2023/05/06 04:16:04;;;;;;;22.73;11.77;;;;;;;7.78;100.00;101271.38;5069547;28;20089;-73
2023/05/06 04:18:31;;;;;;;25.45;12.43;;;;;;;7.78;100.00;101274.16;5069538;28;20435;-74
2023/05/06 04:20:59;;;;;;;25.60;12.45;;;;;;;7.79;100.00;101272.97;5064977;28;20044;-74
2023/05/06 04:23:25;;;;;;;22.85;11.00;;;;;;;7.69;100.00;101288.34;5066491;28;20057;-73
2023/05/06 04:25:52;;;;;;;25.50;12.70;;;;;;;7.66;100.00;101288.31;5067196;28;20092;-74
2023/05/06 04:28:18;;;;;;;25.25;11.95;;;;;;;7.72;100.00;101297.84;5065868;28;20063;-74
2023/05/06 04:30:45;;;;;;;27.38;12.43;;;;;;;7.78;100.00;101291.56;5066759;28;20045;-74
2023/05/06 04:33:11;;;;;;;23.45;11.57;;;;;;;7.79;100.00;101289.56;5074963;28;20044;-72
2023/05/06 04:35:39;;;;;;;22.95;11.65;;;;;;;7.80;100.00;101299.50;5066182;28;20060;-71
2023/05/06 04:38:05;;;;;;;23.30;11.88;;;;;;;7.78;100.00;101305.41;5065002;28;20127;-74
2023/05/06 04:40:34;;;;;;;24.13;12.18;;;;;;;7.79;100.00;101309.75;5066273;28;20048;-72
2023/05/06 04:43:01;;;;;;;26.67;14.00;;;;;;;7.79;100.00;101308.94;5066500;28;20048;-76
2023/05/06 04:45:28;;;;;;;26.58;12.85;;;;;;;7.80;100.00;101310.56;5064964;28;20056;-73
2023/05/06 04:47:55;;;;;;;29.42;13.70;;;;;;;7.84;100.00;101306.66;5073546;28;20045;-72
2023/05/06 04:50:21;;;;;;;29.30;12.98;;;;;;;7.88;100.00;101318.53;5066848;28;20048;-76
2023/05/06 04:52:48;;;;;;;29.95;14.95;;;;;;;7.90;100.00;101320.91;5066485;28;20071;-74
2023/05/06 04:55:14;;;;;;;27.40;13.88;;;;;;;7.89;100.00;101317.34;5064170;28;20088;-73
2023/05/06 04:57:41;;;;;;;27.50;12.98;;;;;;;7.96;100.00;101325.69;5067163;28;20121;-72
2023/05/06 05:00:09;;;;;;;26.05;13.73;;;;;;;7.99;100.00;101329.66;5069551;28;20052;-73
2023/05/06 05:02:36;;;;;;;27.67;13.93;;;;;;;8.03;100.00;101330.50;5069444;28;20060;-73
2023/05/06 05:05:02;;;;;;;31.50;14.70;;;;;;;8.10;100.00;101322.25;5070675;28;20055;-72
2023/05/06 05:07:29;;;;;;;28.00;14.20;;;;;;;8.14;100.00;101331.38;5069788;28;20426;-72
2023/05/06 05:09:55;;;;;;;29.98;14.70;;;;;;;8.22;100.00;101328.25;5069044;28;20074;-73
2023/05/06 05:12:22;;;;;;;33.55;16.38;;;;;;;8.27;100.00;101333.41;5066851;28;20566;-75
2023/05/06 05:14:48;;;;;;;33.00;15.68;;;;;;;8.33;100.00;101331.06;5072131;28;20056;-74
2023/05/06 05:17:15;;;;;;;35.15;17.02;;;;;;;8.39;100.00;101329.53;5069713;28;20044;-73
2023/05/06 05:19:41;;;;;;;32.63;16.30;;;;;;;8.45;100.00;101330.75;5069993;28;20056;-73
2023/05/06 05:22:08;;;;;;;37.58;18.08;;;;;;;8.57;100.00;101333.97;5069549;28;20063;-73
2023/05/06 05:24:34;;;;;;;41.30;20.08;;;;;;;8.64;100.00;101342.34;5069645;28;20083;-77
2023/05/06 05:27:01;;;;;;;41.92;20.38;;;;;;;8.72;100.00;101329.31;5064140;28;20047;-76
2023/05/06 05:29:28;;;;;;;43.97;18.77;;;;;;;8.80;100.00;101342.00;5069324;28;20053;-74
2023/05/06 05:31:54;;;;;;;47.70;20.63;;;;;;;8.90;100.00;101338.50;5069970;28;20044;-73
2023/05/06 05:34:20;;;;;;;47.38;22.83;;;;;;;8.97;100.00;101341.28;5069336;28;20059;-73
2023/05/06 05:36:47;;;;;;;45.50;22.30;;;;;;;9.05;100.00;101338.13;5072552;28;20040;-74
2023/05/06 05:39:13;;;;;;;43.10;22.90;;;;;;;9.14;100.00;101344.13;5074731;28;20044;-73
2023/05/06 05:41:40;;;;;;;44.72;22.65;;;;;;;9.21;100.00;101352.44;5076169;28;20045;-73
2023/05/06 05:44:06;;;;;;;43.55;19.80;;;;;;;9.30;100.00;101354.84;5067258;28;20044;-73
2023/05/06 05:46:33;;;;;;;39.33;18.70;;;;;;;9.37;100.00;101354.84;5066524;28;20071;-74
2023/05/06 05:48:59;;;;;;;48.92;21.02;;;;;;;9.42;100.00;101358.03;5069005;28;20058;-72
2023/05/06 05:51:26;;;;;;;46.20;21.33;;;;;;;9.51;100.00;101360.44;5068543;28;20048;-73
2023/05/06 05:53:52;;;;;;;42.20;20.05;;;;;;;9.60;100.00;101360.84;5069085;28;20044;-73
2023/05/06 05:56:19;;;;;;;42.35;21.05;;;;;;;9.67;100.00;101369.19;5069910;28;20060;-71
2023/05/06 05:58:46;;;;;;;46.83;22.73;;;;;;;9.74;100.00;101360.84;5067705;28;20051;-73
2023/05/06 06:01:13;;;;;;;43.03;21.30;;;;;;;9.82;100.00;101366.00;5061974;28;20491;-74
2023/05/06 06:03:40;;;;;;;46.92;21.27;;;;;;;9.90;100.00;101367.59;5069958;28;20056;-73
2023/05/06 06:06:08;;;;;;;42.25;21.90;;;;;;;9.98;100.00;101374.78;5062135;28;20063;-73
2023/05/06 06:08:35;;;;;;;45.58;21.38;;;;;;;10.07;100.00;101369.59;5064830;28;20052;-74
2023/05/06 06:11:03;;;;;;;44.00;21.52;;;;;;;10.15;100.00;101367.59;5068750;28;20052;-72
2023/05/06 06:13:30;;;;;;;42.15;21.80;;;;;;;10.27;100.00;101363.63;5065250;28;20056;-75
2023/05/06 06:15:57;;;;;;;46.72;21.90;;;;;;;10.36;100.00;101364.78;5061319;28;20055;-75
2023/05/06 06:18:23;;;;;;;43.45;21.05;;;;;;;10.47;100.00;101371.13;5067845;28;20044;-72
2023/05/06 06:20:50;;;;;;;42.00;21.63;;;;;;;10.57;100.00;101367.50;5065164;28;20052;-73
2023/05/06 06:23:19;;;;;;;43.55;21.65;;;;;;;10.64;100.00;101356.38;5064132;28;20160;-73
2023/05/06 06:25:46;;;;;;;43.65;20.95;;;;;;;10.76;100.00;101372.59;5060019;28;20071;-72
2023/05/06 06:28:12;;;;;;;40.35;21.70;;;;;;;10.84;100.00;101365.81;5066818;28;20522;-74
2023/05/06 06:30:40;;;;;;;41.60;22.00;;;;;;;10.94;100.00;101370.53;5063184;28;20053;-73
2023/05/06 06:33:06;;;;;;;38.08;21.45;;;;;;;11.02;100.00;101371.31;5069004;28;20055;-73
2023/05/06 06:35:33;;;;;;;40.28;19.77;;;;;;;11.12;100.00;101371.25;5063399;28;20087;-74
2023/05/06 06:38:00;;;;;;;37.38;18.70;;;;;;;11.19;100.00;101374.00;5065166;28;20049;-73
2023/05/06 06:40:26;;;;;;;38.80;21.45;;;;;;;11.27;100.00;101378.34;5067090;28;20064;-75
2023/05/06 06:42:53;;;;;;;35.90;20.42;;;;;;;11.36;100.00;101375.94;5066198;28;20506;-75
2023/05/06 06:45:20;;;;;;;38.13;19.35;;;;;;;11.50;100.00;101383.38;5075403;28;20045;-76
2023/05/06 06:47:46;;;;;;;38.63;19.35;;;;;;;11.64;100.00;101375.72;5067595;28;20049;-75
2023/05/06 06:50:13;;;;;;;36.92;20.02;;;;;;;11.75;100.00;101373.66;5062748;28;20052;-72
2023/05/06 06:52:39;;;;;;;37.92;19.33;;;;;;;11.85;100.00;101383.91;5081897;28;20569;-76
2023/05/06 06:55:06;;;;;;;35.50;19.63;;;;;;;11.94;100.00;101373.09;5073580;28;20048;-75
2023/05/06 06:57:33;;;;;;;38.67;20.85;;;;;;;12.03;100.00;101378.22;5069330;28;20419;-75
2023/05/06 07:00:00;;;;;;;34.40;18.52;;;;;;;12.11;100.00;101374.16;5062919;28;20067;-75
2023/05/06 07:02:26;;;;;;;36.40;19.85;;;;;;;12.19;100.00;101372.88;5066260;28;20565;-73
2023/05/06 07:04:53;;;;;;;37.28;19.45;;;;;;;12.29;100.00;101372.00;5067945;28;20048;-71
2023/05/06 07:07:19;;;;;;;34.45;19.42;;;;;;;12.40;100.00;101378.28;5064038;28;20045;-76
2023/05/06 07:09:46;;;;;;;35.50;18.17;;;;;;;12.48;100.00;101370.63;5067497;28;20051;-73
2023/05/06 07:12:12;;;;;;;42.30;19.17;;;;;;;12.61;100.00;101375.25;5067855;28;20045;-73
2023/05/06 07:14:40;;;;;;;37.13;18.02;;;;;;;12.70;100.00;101380.34;5069088;28;20125;-74
2023/05/06 07:17:06;;;;;;;35.70;16.13;;;;;;;12.62;100.00;101373.28;5072547;28;20052;-73
2023/05/06 07:19:33;;;;;;;34.28;17.90;;;;;;;12.71;100.00;101368.78;5066776;28;20048;-74
2023/05/06 07:21:59;;;;;;;34.40;17.38;;;;;;;12.75;100.00;101371.50;5062887;28;20066;-74
2023/05/06 07:24:26;;;;;;;35.78;17.20;;;;;;;12.82;100.00;101365.84;5070832;28;20048;-74
2023/05/06 07:26:52;;;;;;;30.38;13.57;;;;;;;12.86;100.00;101369.41;5067252;28;20493;-74
2023/05/06 07:29:19;;;;;;;32.22;15.82;;;;;;;12.96;100.00;101376.84;5064409;28;20098;-75
2023/05/06 07:31:45;;;;;;;30.85;15.90;;;;;;;13.08;100.00;101367.91;5066956;28;20422;-76
2023/05/06 07:34:12;;;;;;;31.95;17.90;;;;;;;13.18;100.00;101366.97;5066857;28;20053;-76
2023/05/06 07:36:42;;;;;;;32.03;16.33;;;;;;;13.21;100.00;101360.53;5072202;28;20060;-77
2023/05/06 07:39:11;;;;;;;32.70;16.90;;;;;;;13.23;100.00;101358.13;5067575;28;20068;-74
2023/05/06 07:41:37;;;;;;;30.83;15.77;;;;;;;13.27;100.00;101356.84;5066863;28;20537;-73
2023/05/06 07:44:05;;;;;;;31.45;15.02;;;;;;;13.42;100.00;101355.47;5065532;28;20050;-75
2023/05/06 07:46:32;;;;;;;25.15;12.65;;;;;;;13.47;100.00;101357.00;5064586;28;20041;-74
2023/05/06 07:48:58;;;;;;;26.33;13.20;;;;;;;13.62;100.00;101361.97;5068258;28;20055;-75
2023/05/06 07:51:25;;;;;;;30.27;13.95;;;;;;;13.74;100.00;101355.00;5075700;28;20052;-76
2023/05/06 07:53:52;;;;;;;23.23;11.30;;;;;;;13.85;100.00;101358.41;5066077;28;20135;-75
2023/05/06 07:56:18;;;;;;;25.52;12.45;;;;;;;13.96;100.00;101359.78;5067185;28;20056;-75
2023/05/06 07:58:45;;;;;;;19.50;9.68;;;;;;;13.99;100.00;101353.34;5061395;28;20044;-76
2023/05/06 08:01:11;;;;;;;20.33;8.65;;;;;;;14.04;100.00;101366.84;5066862;28;20055;-75
2023/05/06 08:03:38;;;;;;;21.17;8.98;;;;;;;14.13;100.00;101360.69;5066238;28;20063;-75
2023/05/06 08:06:07;;;;;;;18.60;9.10;;;;;;;14.15;100.00;101353.44;5068999;28;20063;-75
2023/05/06 08:08:33;;;;;;;22.48;10.55;;;;;;;14.25;100.00;101362.88;5068463;28;20051;-73
2023/05/06 08:11:00;;;;;;;23.02;10.45;;;;;;;14.31;100.00;101372.34;5071630;28;20049;-74
2023/05/06 08:13:27;;;;;;;19.05;9.20;;;;;;;14.40;100.00;101364.19;5057371;28;20712;-73
2023/05/06 08:15:54;;;;;;;19.17;8.20;;;;;;;14.50;100.00;101366.03;5060034;28;20064;-74
2023/05/06 08:18:21;;;;;;;22.70;9.77;;;;;;;14.62;100.00;101362.63;5067164;28;20094;-75
2023/05/06 08:20:49;;;;;;;20.95;9.55;;;;;;;14.68;100.00;101369.28;5063694;28;20480;-72
2023/05/06 08:23:15;;;;;;;21.70;10.25;;;;;;;14.84;100.00;101374.94;5066656;28;20049;-74
2023/05/06 08:25:42;;;;;;;24.02;10.20;;;;;;;14.93;100.00;101384.34;5065288;28;20044;-76
2023/05/06 08:28:08;;;;;;;18.38;7.25;;;;;;;14.92;100.00;101381.97;5063737;28;20049;-74
2023/05/06 08:30:35;;;;;;;20.48;9.15;;;;;;;14.96;100.00;101371.50;5056418;28;20063;-76
2023/05/06 08:33:02;;;;;;;17.85;8.18;;;;;;;15.00;100.00;101377.81;5058453;28;20118;-72
2023/05/06 08:35:29;;;;;;;18.40;7.38;;;;;;;15.05;100.00;101373.72;5068660;28;20439;-73
2023/05/06 08:37:55;;;;;;;18.20;8.13;;;;;;;15.10;100.00;101373.22;5065166;28;20036;-73
2023/05/06 08:40:22;;;;;;;16.90;7.93;;;;;;;15.23;100.00;101374.94;5070453;28;20507;-74
2023/05/06 08:42:49;;;;;;;21.00;8.23;;;;;;;15.29;100.00;101375.19;5069846;28;20495;-75
2023/05/06 08:45:16;;;;;;;16.30;7.68;;;;;;;15.40;100.00;101370.97;5070099;28;20053;-74
2023/05/06 08:47:43;;;;;;;11.48;4.28;;;;;;;15.47;100.00;101370.00;5080762;28;20049;-75
2023/05/06 08:50:10;;;;;;;17.13;7.43;;;;;;;15.53;100.00;101368.28;5066793;28;20155;-76
2023/05/06 08:52:40;;;;;;;17.70;7.65;;;;;;;15.67;100.00;101365.13;5066066;28;20049;-73
2023/05/06 08:55:08;;;;;;;15.93;6.38;;;;;;;15.73;100.00;101369.75;5076401;28;20052;-75
2023/05/06 08:57:36;;;;;;;16.27;6.07;;;;;;;15.72;100.00;101371.00;5066862;28;20171;-75
2023/05/06 09:00:03;;;;;;;10.27;4.10;;;;;;;15.69;100.00;101369.06;5069370;28;20048;-74
2023/05/06 09:02:30;;;;;;;13.40;6.45;;;;;;;15.86;100.00;101376.25;5072895;28;20101;-76
2023/05/06 09:04:58;;;;;;;14.50;5.22;;;;;;;15.94;100.00;101374.06;5054909;28;20049;-72
2023/05/06 09:07:25;;;;;;;18.80;7.32;;;;;;;16.04;100.00;101368.16;5069855;28;20045;-72
2023/05/06 09:09:51;;;;;;;13.73;5.88;;;;;;;16.07;100.00;101369.34;5066623;28;20050;-71
2023/05/06 09:12:18;;;;;;;15.57;5.95;;;;;;;16.16;100.00;101378.69;5077617;28;20057;-72
2023/05/06 09:14:49;;;;;;;15.88;7.30;;;;;;;16.37;100.00;101366.94;5069975;28;20052;-71
2023/05/06 09:17:25;;;;;;;13.00;5.32;;;;;;;16.51;100.00;101374.97;5069260;28;20102;-71
2023/05/06 09:19:53;;;;;;;12.60;4.97;;;;;;;16.61;100.00;101368.28;5070043;28;20044;-72
2023/05/06 09:22:21;;;;;;;15.27;5.55;;;;;;;16.77;100.00;101361.81;5074178;28;20049;-75
2023/05/06 09:24:55;;;;;;;12.15;4.68;;;;;;;16.95;100.00;101354.44;5059309;28;20131;-75
2023/05/06 09:27:24;;;;;;;9.80;3.72;;;;;;;17.10;100.00;101352.81;5062675;28;20052;-72
2023/05/06 09:30:11;;;;;;;11.85;4.55;;;;;;;17.23;100.00;101352.84;5058983;28;20420;-73
2023/05/06 09:32:38;;;;;;;13.02;4.75;;;;;;;17.30;100.00;101350.63;5055730;28;20110;-72
2023/05/06 09:35:07;;;;;;;9.75;4.03;;;;;;;17.41;100.00;101343.88;5067218;28;20127;-75
2023/05/06 09:37:34;;;;;;;8.52;3.50;;;;;;;17.29;100.00;101343.41;5067948;28;20056;-75
2023/05/06 09:40:00;;;;;;;9.82;3.72;;;;;;;17.38;100.00;101336.34;5069464;28;20426;-74
2023/05/06 09:42:28;;;;;;;8.35;4.20;;;;;;;17.41;100.00;101339.03;5068485;28;20056;-75
2023/05/06 09:44:57;;;;;;;11.27;4.10;;;;;;;17.55;100.00;101335.00;5068437;28;20159;-72
2023/05/06 09:47:32;;;;;;;5.80;2.50;;;;;;;17.48;100.00;101333.19;5060221;28;20048;-74
2023/05/06 09:50:00;;;;;;;11.70;3.70;;;;;;;17.64;100.00;101329.44;5068891;28;20052;-74
2023/05/06 09:52:27;;;;;;;9.35;3.70;;;;;;;17.77;100.00;101327.41;5059987;28;20044;-75
2023/05/06 09:54:54;;;;;;;8.30;3.42;;;;;;;17.97;100.00;101334.41;5057494;28;20045;-76
2023/05/06 09:57:22;;;;;;;6.45;3.17;;;;;;;17.92;100.00;101318.03;5056966;28;20059;-76
2023/05/06 09:59:51;;;;;;;8.95;3.70;;;;;;;17.94;100.00;101326.84;5055602;28;20048;-75
2023/05/06 10:02:18;;;;;;;10.00;3.78;;;;;;;17.80;100.00;101320.88;5058694;28;20106;-76
2023/05/06 10:04:47;;;;;;;13.38;4.65;;;;;;;17.85;100.00;101318.28;5058769;28;20462;-75
2023/05/06 10:07:18;;;;;;;8.35;2.83;;;;;;;17.90;100.00;101316.94;5054997;28;20453;-75
2023/05/06 10:09:45;;;;;;;5.45;2.80;;;;;;;17.91;100.00;101313.66;5057580;28;20048;-75
2023/05/06 10:12:12;;;;;;;9.05;3.28;;;;;;;17.91;100.00;101301.63;5057375;28;20053;-75
2023/05/06 10:14:39;;;;;;;9.52;3.35;;;;;;;18.00;100.00;101313.00;5056886;28;20060;-77
2023/05/06 10:17:08;;;;;;;7.85;3.70;;;;;;;17.91;100.00;101310.06;5045164;28;20053;-76
2023/05/06 10:19:39;;;;;;;8.48;3.47;;;;;;;17.85;100.00;101309.06;5040853;28;20055;-76
2023/05/06 10:22:07;;;;;;;14.93;4.05;;;;;;;18.09;100.00;101299.03;5049112;28;20055;-75
2023/05/06 10:24:45;;;;;;;7.25;3.72;;;;;;;18.24;100.00;101300.09;5064884;28;20048;-75
2023/05/06 10:27:12;;;;;;;9.20;3.47;;;;;;;18.61;100.00;101302.72;5066969;28;20067;-74
2023/05/06 10:29:40;;;;;;;7.55;3.38;;;;;;;18.97;100.00;101302.97;5064639;28;20049;-73
2023/05/06 10:32:08;;;;;;;8.48;3.00;;;;;;;19.31;100.00;101304.88;5044070;28;20063;-75
2023/05/06 10:34:40;;;;;;;8.57;3.20;;;;;;;19.58;100.00;101302.19;5044324;28;20060;-77
2023/05/06 10:37:08;;;;;;;5.60;2.80;;;;;;;19.84;100.00;101297.84;5040088;28;20052;-74
2023/05/06 10:39:34;;;;;;;7.05;2.75;;;;;;;19.97;100.00;101301.31;5042067;28;20439;-72
2023/05/06 10:42:01;;;;;;;5.38;2.60;;;;;;;20.12;100.00;101302.28;5039977;28;20056;-72
2023/05/06 10:44:56;;;;;;;1.52;1.27;;;;;;;19.90;97.87;101301.63;5040146;28;20053;-78
2023/05/06 10:47:22;;;;;;;6.50;2.40;;;;;;;20.07;100.00;101283.13;5041633;28;20048;-76
2023/05/06 10:50:18;;;;;;;3.08;1.95;;;;;;;19.70;100.00;101285.13;5043436;28;20224;-76
2023/05/06 10:52:46;;;;;;;;;;;;;;;19.44;100.00;101285.78;5044575;28;20052;-74
2023/05/06 10:55:27;;;;;;;3.63;1.65;;;;;;;19.31;99.19;101285.91;5041442;28;19931;-75
2023/05/06 10:58:03;;;;;;;4.57;1.70;;;;;;;19.11;100.00;101285.50;5039693;28;20052;-77
2023/05/06 11:00:31;;;;;;;7.03;2.17;;;;;;;19.41;100.00;101281.09;5043024;28;20055;-75
2023/05/06 11:03:00;;;;;;;3.30;1.88;;;;;;;19.61;100.00;101284.31;5039138;28;20561;-78
2023/05/06 11:05:27;;;;;;;2.50;1.40;;;;;;;19.81;96.85;101284.66;5042514;28;20059;-77
2023/05/06 11:08:08;;;;;;;0.57;0.57;;;;;;;19.87;95.53;101282.03;5054240;28;20422;-73
2023/05/06 11:10:35;;;;;;;4.13;1.45;;;;;;;20.13;98.09;101277.66;5063444;28;20764;-75
2023/05/06 11:13:28;;;;;;;1.27;0.80;;;;;;;19.93;94.53;101278.09;5071546;28;20048;-77